Regatta — V7DM3 — position and weather

sailwx.info

Track history (hours):
 
Tides and Currents Weather Stations Pressure Air Temp Water Temp Dewpoint Dewpoint Depression Visibility Wind Speed Wind Dir Waves Ship Positions

Regatta

Last reported at 2017-Sep-18 06:41 UTC. Time now 2017-Sep-20 00:35 UTC.
Position N 48°04' W 125°14'.

Length 180 m; draft 5.7 m.

Type: Passenger vessel. MMSI: 538001664.

Date/timePositionNaut miles runAvg speedWind from/ knotsBaromVisibWave heightAir tempDewpointWater temp
2017-Sep-18 06:41N 48°04' W 125°14'517.8
2017-Sep-18 06:25N 48°09' W 125°13'717.8
2017-Sep-18 06:00N 48°16' W 125°10'918.1
2017-Sep-18 05:31N 48°25' W 125°07'917.5
2017-Sep-18 05:00N 48°31' W 124°58'816.3
2017-Sep-18 04:30N 48°31' W 124°46'918.1
2017-Sep-18 04:00N 48°28' W 124°33'918.3
2017-Sep-18 03:30N 48°24' W 124°20'918.5
2017-Sep-18 03:00N 48°21' W 124°07'918.3
2017-Sep-18 02:30N 48°17' W 123°54'1018.5
2017-Sep-18 02:00N 48°16' W 123°40'816.5
2017-Sep-18 01:30N 48°18' W 123°28'815.5
2017-Sep-18 01:00N 48°25' W 123°24'0 0.8
2017-Sep-18 00:29N 48°25' W 123°23'0 0.0
2017-Sep-17 23:59N 48°25' W 123°23'0 0.0
2017-Sep-17 23:28N 48°25' W 123°23'0 0.0
2017-Sep-17 22:59N 48°25' W 123°23'0 0.0
2017-Sep-17 22:28N 48°25' W 123°23'0 0.0
2017-Sep-17 21:58N 48°25' W 123°23'0 0.0
2017-Sep-17 21:28N 48°25' W 123°23'0 0.0
2017-Sep-17 20:58N 48°25' W 123°23'0 0.0
2017-Sep-17 20:28N 48°25' W 123°23'0 0.0
2017-Sep-17 19:58N 48°25' W 123°23'0 0.0
2017-Sep-17 19:28N 48°25' W 123°23'0 0.2
2017-Sep-17 19:00N 48°25' W 123°23'3 5.9
2017-Sep-17 18:31N 48°22' W 123°24'917.2
2017-Sep-17 17:58N 48°14' W 123°30'1017.5
2017-Sep-17 17:25N 48°13' W 123°45'817.3
2017-Sep-17 16:58N 48°14' W 123°56'918.1
2017-Sep-17 16:30N 48°17' W 124°08'917.7
2017-Sep-17 16:00N 48°21' W 124°20'816.8
2017-Sep-17 15:30N 48°25' W 124°31'816.7
2017-Sep-17 15:00N 48°28' W 124°43'816.6
2017-Sep-17 14:30N 48°29' W 124°55'917.1
2017-Sep-17 14:00N 48°29' W 125°08'917.4
2017-Sep-17 13:30N 48°32' W 125°20'917.8
2017-Sep-17 13:00N 48°36' W 125°32'917.8
2017-Sep-17 12:30N 48°40' W 125°44'917.5
2017-Sep-17 12:00N 48°44' W 125°56'917.4
2017-Sep-17 11:30N 48°49' W 126°07'917.9
2017-Sep-17 11:00N 48°55' W 126°17'918.3
2017-Sep-17 10:30N 49°01' W 126°27'918.3
2017-Sep-17 10:00N 49°07' W 126°39'918.0
2017-Sep-17 09:30N 49°13' W 126°49'918.2
2017-Sep-17 08:59N 49°19' W 126°60'  
2017-Sep-14 09:41N 58°19' W 136°14'317.4
2017-Sep-14 09:31N 58°19' W 136°09'918.6
2017-Sep-14 09:00N 58°19' W 135°51'1019.1
2017-Sep-14 08:30N 58°16' W 135°33'  
2017-Sep-11 21:34N 51°24' W 129°25'116.4
2017-Sep-11 21:30N 51°23' W 129°24'816.0
2017-Sep-11 21:01N 51°19' W 129°13'815.7
2017-Sep-11 20:30N 51°16' W 129°01'816.0
2017-Sep-11 20:01N 51°12' W 128°50'815.7
2017-Sep-11 19:31N 51°09' W 128°39'815.5
2017-Sep-11 19:01N 51°07' W 128°27'815.6
2017-Sep-11 18:30N 51°05' W 128°15'815.4
2017-Sep-11 18:00N 51°02' W 128°03'815.3
2017-Sep-11 17:30N 50°60' W 127°52'713.4
2017-Sep-11 17:00N 50°56' W 127°43'816.8
2017-Sep-11 16:30N 50°51' W 127°32'7215.8
2017-Sep-11 11:57N 50°23' W 125°48'1315.7
2017-Sep-11 11:06N 50°20' W 125°27'214.1
2017-Sep-11 10:59N 50°19' W 125°25'816.8
2017-Sep-11 10:31N 50°12' W 125°22'612.4
2017-Sep-11 10:01N 50°06' W 125°18'612.2
2017-Sep-11 09:31N 50°01' W 125°13'611.4
2017-Sep-11 09:01N 49°56' W 125°07'611.0
2017-Sep-11 08:30N 49°53' W 125°01'510.9
2017-Sep-11 08:01N 49°49' W 124°55'714.0
2017-Sep-11 07:30N 49°44' W 124°47'816.5
2017-Sep-11 07:01N 49°38' W 124°38'816.9
2017-Sep-11 06:30N 49°32' W 124°29'917.2
2017-Sep-11 06:00N 49°26' W 124°20'817.0
2017-Sep-11 05:30N 49°23' W 124°08'917.1
2017-Sep-11 05:00N 49°20' W 123°55'816.7
2017-Sep-11 04:30N 49°18' W 123°43'816.9
2017-Sep-11 04:00N 49°16' W 123°30'816.5
2017-Sep-11 03:30N 49°19' W 123°18'714.6
2017-Sep-11 03:00N 49°18' W 123°07'1 1.8
2017-Sep-11 02:29N 49°17' W 123°07'0 0.0
2017-Sep-11 01:59N 49°17' W 123°07'0 0.0
2017-Sep-11 01:29N 49°17' W 123°07'0 0.0
2017-Sep-11 00:59N 49°17' W 123°07'0 0.0
2017-Sep-11 00:29N 49°17' W 123°07'0 0.0
2017-Sep-10 23:59N 49°17' W 123°07'0 0.0
2017-Sep-10 23:29N 49°17' W 123°07'0 0.0
2017-Sep-10 22:59N 49°17' W 123°07'0 0.0
2017-Sep-10 22:29N 49°17' W 123°07'0 0.0
2017-Sep-10 21:59N 49°17' W 123°07'0 0.0
2017-Sep-10 21:29N 49°17' W 123°07'0 0.0
2017-Sep-10 20:59N 49°17' W 123°07'0 0.0
2017-Sep-10 20:29N 49°17' W 123°07'0 0.0
2017-Sep-10 19:59N 49°17' W 123°07'0 0.0
2017-Sep-10 19:29N 49°17' W 123°07'0 0.0
2017-Sep-10 18:59N 49°17' W 123°07'0 0.0
2017-Sep-10 18:29N 49°17' W 123°07'0 0.0
2017-Sep-10 17:59N 49°17' W 123°07'0 0.0
2017-Sep-10 17:29N 49°17' W 123°07'0 0.0
2017-Sep-10 16:59N 49°17' W 123°07'0 0.0
2017-Sep-10 16:29N 49°17' W 123°07'0 0.0
2017-Sep-10 15:59N 49°17' W 123°07'0 0.0
2017-Sep-10 15:29N 49°17' W 123°07'0 0.0
2017-Sep-10 14:59N 49°17' W 123°07'0 0.0
2017-Sep-10 13:59N 49°17' W 123°07'0 0.0
2017-Sep-10 13:29N 49°17' W 123°07'0 0.0
2017-Sep-10 13:00N 49°17' W 123°07'0 0.8
2017-Sep-10 12:30N 49°18' W 123°06'3 6.7
2017-Sep-10 12:00N 49°19' W 123°11'4 7.8
2017-Sep-10 11:30N 49°18' W 123°17'4 7.7
2017-Sep-10 11:00N 49°18' W 123°23'4 7.6
2017-Sep-10 10:30N 49°16' W 123°28'4 7.4
2017-Sep-10 10:00N 49°13' W 123°32'4 7.1
2017-Sep-10 09:30N 49°10' W 123°33'4 7.0
2017-Sep-10 09:00N 49°07' W 123°28'4 7.1
2017-Sep-10 08:30N 49°06' W 123°24'4 7.3
2017-Sep-10 08:00N 49°03' W 123°20'3 6.9
2017-Sep-10 07:30N 49°01' W 123°16'4 7.2
2017-Sep-10 07:00N 48°58' W 123°12'4 7.2
2017-Sep-10 06:30N 48°56' W 123°08'5 9.4
2017-Sep-10 06:00N 48°53' W 123°03'4 7.8
2017-Sep-10 05:30N 48°49' W 123°01'4 7.2
2017-Sep-10 05:00N 48°46' W 123°03'4 7.4
2017-Sep-10 04:30N 48°44' W 123°08'4 8.2
2017-Sep-10 03:58N 48°42' W 123°14'510.0
2017-Sep-10 03:30N 48°37' W 123°14'4 8.1
2017-Sep-10 03:00N 48°33' W 123°12'4 8.1
2017-Sep-10 02:30N 48°30' W 123°11'4 7.8
2017-Sep-10 02:00N 48°26' W 123°10'5 9.7
2017-Sep-10 01:30N 48°23' W 123°16'510.3
2017-Sep-10 01:00N 48°24' W 123°24'1 2.4
2017-Sep-10 00:28N 48°25' W 123°23'0 0.0
2017-Sep-09 23:58N 48°25' W 123°23'0 0.0
2017-Sep-09 23:28N 48°25' W 123°23'0 0.0
2017-Sep-09 22:58N 48°25' W 123°23'0 0.0
2017-Sep-09 22:28N 48°25' W 123°23'0 0.0
2017-Sep-09 21:58N 48°25' W 123°23'0 0.0
2017-Sep-09 21:28N 48°25' W 123°23'0 0.0
2017-Sep-09 20:58N 48°25' W 123°23'0 0.0
2017-Sep-09 20:28N 48°25' W 123°23'0 0.0
2017-Sep-09 19:58N 48°25' W 123°23'0 0.0
2017-Sep-09 19:28N 48°25' W 123°23'0 0.0
2017-Sep-09 18:58N 48°25' W 123°23'0 0.0
2017-Sep-09 18:30N 48°25' W 123°23'1 2.3
2017-Sep-09 18:01N 48°24' W 123°25'611.2
2017-Sep-09 17:30N 48°23' W 123°16'917.6
2017-Sep-09 17:00N 48°32' W 123°13'1019.8
2017-Sep-09 16:30N 48°42' W 123°15'918.7
2017-Sep-09 16:00N 48°46' W 123°03'815.4
2017-Sep-09 15:30N 48°53' W 123°07'918.6
2017-Sep-09 15:00N 48°59' W 123°18'918.4
2017-Sep-09 14:30N 49°06' W 123°28'918.3
2017-Sep-09 14:00N 49°11' W 123°39'918.2
2017-Sep-09 13:30N 49°16' W 123°51'918.4
2017-Sep-09 13:00N 49°20' W 124°04'918.4
2017-Sep-09 12:30N 49°25' W 124°16'918.4
2017-Sep-09 12:00N 49°29' W 124°28'918.3
2017-Sep-09 11:30N 49°36' W 124°37'918.5
2017-Sep-09 11:00N 49°43' W 124°47'918.6
2017-Sep-09 10:31N 49°50' W 124°57'918.2
2017-Sep-09 10:00N 49°56' W 125°07'816.5
2017-Sep-09 09:30N 50°03' W 125°14'713.5
2017-Sep-09 09:00N 50°08' W 125°21'5 9.6
2017-Sep-09 08:30N 50°13' W 125°23'5 9.3
2017-Sep-09 07:57N 50°18' W 125°25'1210.0
2017-Sep-09 06:48N 50°22' W 125°42'4014.3
2017-Sep-09 03:59N 50°35' W 126°42'916.4
2017-Sep-09 03:25N 50°41' W 126°52'818.0
2017-Sep-09 03:00N 50°44' W 127°04'917.7
2017-Sep-09 02:30N 50°47' W 127°16'816.4
2017-Sep-09 02:00N 50°50' W 127°28'815.6
2017-Sep-09 01:30N 50°54' W 127°39'815.7
2017-Sep-09 01:00N 50°59' W 127°49'712.9
2017-Sep-09 00:27N 51°01' W 127°59'816.6
2017-Sep-08 23:57N 51°04' W 128°12'818.3
2017-Sep-08 23:30N 51°06' W 128°24'918.3
2017-Sep-08 23:00N 51°09' W 128°38'917.2
2017-Sep-08 22:29N 51°12' W 128°52'  
Track history (hours):
 
Tides and Currents Weather Stations Pressure Air Temp Water Temp Dewpoint Dewpoint Depression Visibility Wind Speed Wind Dir Waves Ship Positions

Regatta

Last reported at 2017-Sep-18 06:41 UTC. Time now 2017-Sep-20 00:35 UTC.
Position N 48°04' W 125°14'.

Length 180 m; draft 5.7 m.

Type: Passenger vessel. MMSI: 538001664.

Date/timePositionNaut miles runAvg speedWind from/ knotsBaromVisibWave heightAir tempDewpointWater temp
2017-Sep-18 06:41N 48°04' W 125°14'517.8
2017-Sep-18 06:25N 48°09' W 125°13'717.8
2017-Sep-18 06:00N 48°16' W 125°10'918.1
2017-Sep-18 05:31N 48°25' W 125°07'917.5
2017-Sep-18 05:00N 48°31' W 124°58'816.3
2017-Sep-18 04:30N 48°31' W 124°46'918.1
2017-Sep-18 04:00N 48°28' W 124°33'918.3
2017-Sep-18 03:30N 48°24' W 124°20'918.5
2017-Sep-18 03:00N 48°21' W 124°07'918.3
2017-Sep-18 02:30N 48°17' W 123°54'1018.5
2017-Sep-18 02:00N 48°16' W 123°40'816.5
2017-Sep-18 01:30N 48°18' W 123°28'815.5
2017-Sep-18 01:00N 48°25' W 123°24'0 0.8
2017-Sep-18 00:29N 48°25' W 123°23'0 0.0
2017-Sep-17 23:59N 48°25' W 123°23'0 0.0
2017-Sep-17 23:28N 48°25' W 123°23'0 0.0
2017-Sep-17 22:59N 48°25' W 123°23'0 0.0
2017-Sep-17 22:28N 48°25' W 123°23'0 0.0
2017-Sep-17 21:58N 48°25' W 123°23'0 0.0
2017-Sep-17 21:28N 48°25' W 123°23'0 0.0
2017-Sep-17 20:58N 48°25' W 123°23'0 0.0
2017-Sep-17 20:28N 48°25' W 123°23'0 0.0
2017-Sep-17 19:58N 48°25' W 123°23'0 0.0
2017-Sep-17 19:28N 48°25' W 123°23'0 0.2
2017-Sep-17 19:00N 48°25' W 123°23'3 5.9
2017-Sep-17 18:31N 48°22' W 123°24'917.2
2017-Sep-17 17:58N 48°14' W 123°30'1017.5
2017-Sep-17 17:25N 48°13' W 123°45'817.3
2017-Sep-17 16:58N 48°14' W 123°56'918.1
2017-Sep-17 16:30N 48°17' W 124°08'917.7
2017-Sep-17 16:00N 48°21' W 124°20'816.8
2017-Sep-17 15:30N 48°25' W 124°31'816.7
2017-Sep-17 15:00N 48°28' W 124°43'816.6
2017-Sep-17 14:30N 48°29' W 124°55'917.1
2017-Sep-17 14:00N 48°29' W 125°08'917.4
2017-Sep-17 13:30N 48°32' W 125°20'917.8
2017-Sep-17 13:00N 48°36' W 125°32'917.8
2017-Sep-17 12:30N 48°40' W 125°44'917.5
2017-Sep-17 12:00N 48°44' W 125°56'917.4
2017-Sep-17 11:30N 48°49' W 126°07'917.9
2017-Sep-17 11:00N 48°55' W 126°17'918.3
2017-Sep-17 10:30N 49°01' W 126°27'918.3
2017-Sep-17 10:00N 49°07' W 126°39'918.0
2017-Sep-17 09:30N 49°13' W 126°49'918.2
2017-Sep-17 08:59N 49°19' W 126°60'  
2017-Sep-14 09:41N 58°19' W 136°14'317.4
2017-Sep-14 09:31N 58°19' W 136°09'918.6
2017-Sep-14 09:00N 58°19' W 135°51'1019.1
2017-Sep-14 08:30N 58°16' W 135°33'  
2017-Sep-11 21:34N 51°24' W 129°25'116.4
2017-Sep-11 21:30N 51°23' W 129°24'816.0
2017-Sep-11 21:01N 51°19' W 129°13'815.7
2017-Sep-11 20:30N 51°16' W 129°01'816.0
2017-Sep-11 20:01N 51°12' W 128°50'815.7
2017-Sep-11 19:31N 51°09' W 128°39'815.5
2017-Sep-11 19:01N 51°07' W 128°27'815.6
2017-Sep-11 18:30N 51°05' W 128°15'815.4
2017-Sep-11 18:00N 51°02' W 128°03'815.3
2017-Sep-11 17:30N 50°60' W 127°52'713.4
2017-Sep-11 17:00N 50°56' W 127°43'816.8
2017-Sep-11 16:30N 50°51' W 127°32'7215.8
2017-Sep-11 11:57N 50°23' W 125°48'1315.7
2017-Sep-11 11:06N 50°20' W 125°27'214.1
2017-Sep-11 10:59N 50°19' W 125°25'816.8
2017-Sep-11 10:31N 50°12' W 125°22'612.4
2017-Sep-11 10:01N 50°06' W 125°18'612.2
2017-Sep-11 09:31N 50°01' W 125°13'611.4
2017-Sep-11 09:01N 49°56' W 125°07'611.0
2017-Sep-11 08:30N 49°53' W 125°01'510.9
2017-Sep-11 08:01N 49°49' W 124°55'714.0
2017-Sep-11 07:30N 49°44' W 124°47'816.5
2017-Sep-11 07:01N 49°38' W 124°38'816.9
2017-Sep-11 06:30N 49°32' W 124°29'917.2
2017-Sep-11 06:00N 49°26' W 124°20'817.0
2017-Sep-11 05:30N 49°23' W 124°08'917.1
2017-Sep-11 05:00N 49°20' W 123°55'816.7
2017-Sep-11 04:30N 49°18' W 123°43'816.9
2017-Sep-11 04:00N 49°16' W 123°30'816.5
2017-Sep-11 03:30N 49°19' W 123°18'714.6
2017-Sep-11 03:00N 49°18' W 123°07'1 1.8
2017-Sep-11 02:29N 49°17' W 123°07'0 0.0
2017-Sep-11 01:59N 49°17' W 123°07'0 0.0
2017-Sep-11 01:29N 49°17' W 123°07'0 0.0
2017-Sep-11 00:59N 49°17' W 123°07'0 0.0
2017-Sep-11 00:29N 49°17' W 123°07'0 0.0
2017-Sep-10 23:59N 49°17' W 123°07'0 0.0
2017-Sep-10 23:29N 49°17' W 123°07'0 0.0
2017-Sep-10 22:59N 49°17' W 123°07'0 0.0
2017-Sep-10 22:29N 49°17' W 123°07'0 0.0
2017-Sep-10 21:59N 49°17' W 123°07'0 0.0
2017-Sep-10 21:29N 49°17' W 123°07'0 0.0
2017-Sep-10 20:59N 49°17' W 123°07'0 0.0
2017-Sep-10 20:29N 49°17' W 123°07'0 0.0
2017-Sep-10 19:59N 49°17' W 123°07'0 0.0
2017-Sep-10 19:29N 49°17' W 123°07'0 0.0
2017-Sep-10 18:59N 49°17' W 123°07'0 0.0
2017-Sep-10 18:29N 49°17' W 123°07'0 0.0
2017-Sep-10 17:59N 49°17' W 123°07'0 0.0
2017-Sep-10 17:29N 49°17' W 123°07'0 0.0
2017-Sep-10 16:59N 49°17' W 123°07'0 0.0
2017-Sep-10 16:29N 49°17' W 123°07'0 0.0
2017-Sep-10 15:59N 49°17' W 123°07'0 0.0
2017-Sep-10 15:29N 49°17' W 123°07'0 0.0
2017-Sep-10 14:59N 49°17' W 123°07'0 0.0
2017-Sep-10 13:59N 49°17' W 123°07'0 0.0
2017-Sep-10 13:29N 49°17' W 123°07'0 0.0
2017-Sep-10 13:00N 49°17' W 123°07'0 0.8
2017-Sep-10 12:30N 49°18' W 123°06'3 6.7
2017-Sep-10 12:00N 49°19' W 123°11'4 7.8
2017-Sep-10 11:30N 49°18' W 123°17'4 7.7
2017-Sep-10 11:00N 49°18' W 123°23'4 7.6
2017-Sep-10 10:30N 49°16' W 123°28'4 7.4
2017-Sep-10 10:00N 49°13' W 123°32'4 7.1
2017-Sep-10 09:30N 49°10' W 123°33'4 7.0
2017-Sep-10 09:00N 49°07' W 123°28'4 7.1
2017-Sep-10 08:30N 49°06' W 123°24'4 7.3
2017-Sep-10 08:00N 49°03' W 123°20'3 6.9
2017-Sep-10 07:30N 49°01' W 123°16'4 7.2
2017-Sep-10 07:00N 48°58' W 123°12'4 7.2
2017-Sep-10 06:30N 48°56' W 123°08'5 9.4
2017-Sep-10 06:00N 48°53' W 123°03'4 7.8
2017-Sep-10 05:30N 48°49' W 123°01'4 7.2
2017-Sep-10 05:00N 48°46' W 123°03'4 7.4
2017-Sep-10 04:30N 48°44' W 123°08'4 8.2
2017-Sep-10 03:58N 48°42' W 123°14'510.0
2017-Sep-10 03:30N 48°37' W 123°14'4 8.1
2017-Sep-10 03:00N 48°33' W 123°12'4 8.1
2017-Sep-10 02:30N 48°30' W 123°11'4 7.8
2017-Sep-10 02:00N 48°26' W 123°10'5 9.7
2017-Sep-10 01:30N 48°23' W 123°16'510.3
2017-Sep-10 01:00N 48°24' W 123°24'1 2.4
2017-Sep-10 00:28N 48°25' W 123°23'0 0.0
2017-Sep-09 23:58N 48°25' W 123°23'0 0.0
2017-Sep-09 23:28N 48°25' W 123°23'0 0.0
2017-Sep-09 22:58N 48°25' W 123°23'0 0.0
2017-Sep-09 22:28N 48°25' W 123°23'0 0.0
2017-Sep-09 21:58N 48°25' W 123°23'0 0.0
2017-Sep-09 21:28N 48°25' W 123°23'0 0.0
2017-Sep-09 20:58N 48°25' W 123°23'0 0.0
2017-Sep-09 20:28N 48°25' W 123°23'0 0.0
2017-Sep-09 19:58N 48°25' W 123°23'0 0.0
2017-Sep-09 19:28N 48°25' W 123°23'0 0.0
2017-Sep-09 18:58N 48°25' W 123°23'0 0.0
2017-Sep-09 18:30N 48°25' W 123°23'1 2.3
2017-Sep-09 18:01N 48°24' W 123°25'611.2
2017-Sep-09 17:30N 48°23' W 123°16'917.6
2017-Sep-09 17:00N 48°32' W 123°13'1019.8
2017-Sep-09 16:30N 48°42' W 123°15'918.7
2017-Sep-09 16:00N 48°46' W 123°03'815.4
2017-Sep-09 15:30N 48°53' W 123°07'918.6
2017-Sep-09 15:00N 48°59' W 123°18'918.4
2017-Sep-09 14:30N 49°06' W 123°28'918.3
2017-Sep-09 14:00N 49°11' W 123°39'918.2
2017-Sep-09 13:30N 49°16' W 123°51'918.4
2017-Sep-09 13:00N 49°20' W 124°04'918.4
2017-Sep-09 12:30N 49°25' W 124°16'918.4
2017-Sep-09 12:00N 49°29' W 124°28'918.3
2017-Sep-09 11:30N 49°36' W 124°37'918.5
2017-Sep-09 11:00N 49°43' W 124°47'918.6
2017-Sep-09 10:31N 49°50' W 124°57'918.2
2017-Sep-09 10:00N 49°56' W 125°07'816.5
2017-Sep-09 09:30N 50°03' W 125°14'713.5
2017-Sep-09 09:00N 50°08' W 125°21'5 9.6
2017-Sep-09 08:30N 50°13' W 125°23'5 9.3
2017-Sep-09 07:57N 50°18' W 125°25'1210.0
2017-Sep-09 06:48N 50°22' W 125°42'4014.3
2017-Sep-09 03:59N 50°35' W 126°42'916.4
2017-Sep-09 03:25N 50°41' W 126°52'818.0
2017-Sep-09 03:00N 50°44' W 127°04'917.7
2017-Sep-09 02:30N 50°47' W 127°16'816.4
2017-Sep-09 02:00N 50°50' W 127°28'815.6
2017-Sep-09 01:30N 50°54' W 127°39'815.7
2017-Sep-09 01:00N 50°59' W 127°49'712.9
2017-Sep-09 00:27N 51°01' W 127°59'816.6
2017-Sep-08 23:57N 51°04' W 128°12'818.3
2017-Sep-08 23:30N 51°06' W 128°24'918.3
2017-Sep-08 23:00N 51°09' W 128°38'917.2
2017-Sep-08 22:29N 51°12' W 128°52'  

Dump ship's entire track history